Time;durP1;ratioP1;P1;durP2;ratioP2;P2;SDS_P1;SDS_P2;PMS_P1;PMS_P2;Temp;Humidity;BMP_temperature;BMP_pressure;BME280_temperature;BME280_humidity;BME280_pressure;Samples;Min_cycle;Max_cycle;Signal;HPM_P1;HPM_P2
2021/04/12 00:00:17;;;;;;;12.68;5.88;;;;;;;3.79;74.26;97791.59;4945247;29;20038;-64
2021/04/12 00:02:59;;;;;;;12.30;6.22;;;;;;;3.85;73.77;97790.34;4946872;28;20043;-65
2021/04/12 00:05:31;;;;;;;13.95;5.80;;;;;;;3.81;74.69;97781.09;4946552;29;20043;-64
2021/04/12 00:08:11;;;;;;;12.27;5.50;;;;;;;3.83;74.15;97787.09;4945330;29;20043;-65
2021/04/12 00:10:49;;;;;;;10.25;4.82;;;;;;;3.85;73.15;97784.88;4944633;29;20055;-64
2021/04/12 00:13:23;;;;;;;8.60;4.85;;;;;;;3.62;73.58;97758.53;4946417;28;20039;-66
2021/04/12 00:16:01;;;;;;;12.60;4.72;;;;;;;3.32;74.18;97709.91;4946285;29;20039;-65
2021/04/12 00:18:52;;;;;;;9.23;4.88;;;;;;;3.69;75.14;97780.84;4946737;29;20042;-65
2021/04/12 00:21:39;;;;;;;10.48;5.07;;;;;;;3.08;75.64;97695.69;4944587;29;20035;-65
2021/04/12 00:24:16;;;;;;;11.63;4.82;;;;;;;3.22;75.50;97721.09;4944952;28;20588;-64
2021/04/12 00:26:50;;;;;;;8.10;4.00;;;;;;;3.60;75.17;97774.47;4946354;28;20063;-64
2021/04/12 00:29:19;;;;;;;;;;;;;;;3.54;74.28;97778.44;4928155;29;20044;-65
2021/04/12 00:31:52;;;;;;;7.53;3.45;;;;;;;3.44;75.12;97766.91;4927355;29;19941;-65
2021/04/12 00:34:21;;;;;;;5.93;3.75;;;;;;;3.40;76.39;97761.22;4927329;29;20719;-65
2021/04/12 00:36:56;;;;;;;6.03;3.30;;;;;;;2.70;76.75;97680.63;4926309;29;20031;-65
2021/04/12 00:39:41;;;;;;;6.70;3.70;;;;;;;3.16;76.90;97763.38;4927036;29;20058;-66
2021/04/12 00:42:26;;;;;;;5.60;3.28;;;;;;;3.31;75.53;97763.06;4925064;29;20462;-66
2021/04/12 00:44:55;;;;;;;6.55;3.53;;;;;;;3.18;75.49;97754.88;4925698;29;20039;-65
2021/04/12 00:47:32;;;;;;;9.80;4.22;;;;;;;3.25;75.74;97750.59;4926390;29;20043;-65
2021/04/12 00:50:26;;;;;;;10.13;5.10;;;;;;;3.18;76.23;97747.44;4925352;29;20095;-66
2021/04/12 00:53:06;;;;;;;11.48;4.88;;;;;;;3.20;76.45;97745.22;4927019;29;20052;-65
2021/04/12 00:55:39;;;;;;;13.32;6.07;;;;;;;3.17;75.54;97745.84;4926301;29;20063;-65
2021/04/12 00:58:19;;;;;;;10.35;4.55;;;;;;;2.45;75.50;97661.97;4927104;29;20050;-65
2021/04/12 01:00:53;;;;;;;10.35;4.20;;;;;;;3.08;75.67;97737.53;4926622;29;20039;-65
2021/04/12 01:03:46;;;;;;;8.13;4.88;;;;;;;2.99;76.74;97722.13;4926527;29;20043;-65
2021/04/12 01:06:15;;;;;;;6.88;3.53;;;;;;;3.11;77.01;97730.66;4924460;29;20059;-65
2021/04/12 01:08:55;;;;;;;8.13;3.97;;;;;;;3.13;76.12;97728.38;4925040;29;20075;-65
2021/04/12 01:11:30;;;;;;;5.95;4.03;;;;;;;3.22;74.26;97726.56;4925075;28;20649;-64
2021/04/12 01:14:19;;;;;;;9.38;5.07;;;;;;;3.16;74.63;97727.81;4926786;29;20040;-64
2021/04/12 01:17:19;;;;;;;9.85;5.25;;;;;;;3.06;75.23;97725.28;4926430;29;20108;-64
2021/04/12 01:19:47;;;;;;;9.93;4.75;;;;;;;2.99;77.38;97722.13;4926651;29;20062;-65
2021/04/12 01:22:24;;;;;;;8.95;4.45;;;;;;;3.13;76.57;97711.19;4924621;29;20059;-64
2021/04/12 01:25:03;;;;;;;10.07;5.55;;;;;;;2.54;75.98;97654.69;4926477;29;20067;-64
2021/04/12 01:27:31;;;;;;;8.88;5.30;;;;;;;3.04;76.37;97717.38;4930346;29;20035;-65
2021/04/12 01:30:34;;;;;;;10.52;5.03;;;;;;;2.96;75.71;97717.25;4943907;29;20226;-65
2021/04/12 01:33:49;;;;;;;10.00;5.25;;;;;;;2.81;77.22;97715.63;4945867;28;20251;-65
2021/04/12 01:36:29;;;;;;;10.98;6.13;;;;;;;2.72;77.46;97716.66;4945702;29;20046;-66
2021/04/12 01:39:19;;;;;;;11.13;4.80;;;;;;;2.75;77.21;97711.38;4949514;28;20043;-65
2021/04/12 01:41:55;;;;;;;10.68;4.40;;;;;;;2.73;77.87;97707.34;4948642;29;20098;-64
2021/04/12 01:44:47;;;;;;;10.60;5.18;;;;;;;2.80;76.82;97699.53;4949711;29;20043;-64
2021/04/12 01:47:39;;;;;;;8.90;4.30;;;;;;;2.65;76.82;97683.44;4954016;28;20047;-65
2021/04/12 01:50:17;;;;;;;8.93;4.53;;;;;;;2.86;75.48;97692.88;4949641;28;20031;-65
2021/04/12 01:53:14;;;;;;;10.38;5.07;;;;;;;2.83;77.05;97691.53;4949103;29;20102;-65
2021/04/12 01:55:54;;;;;;;13.15;7.60;;;;;;;2.79;77.62;97703.41;4948965;29;20034;-65
2021/04/12 01:58:22;;;;;;;13.68;6.20;;;;;;;2.84;77.69;97692.34;4947719;29;20426;-65
2021/04/12 02:01:25;;;;;;;7.10;4.20;;;;;;;2.83;76.22;97696.19;4948520;29;20032;-64
2021/04/12 02:04:07;;;;;;;10.23;5.50;;;;;;;2.92;75.90;97688.91;4949054;28;20098;-63
2021/04/12 02:06:58;;;;;;;13.82;6.13;;;;;;;2.81;75.76;97682.03;4948572;29;20118;-64
2021/04/12 02:09:29;;;;;;;15.10;8.50;;;;;;;0.88;76.55;97390.25;4947233;29;20193;-64
2021/04/12 02:12:18;;;;;;;16.08;8.10;;;;;;;2.10;76.06;97580.66;4948733;28;20038;-64
2021/04/12 02:14:43;;;;;;;14.48;7.10;;;;;;;2.83;75.44;97690.72;4948800;28;20066;-65
2021/04/12 02:17:43;;;;;;;10.63;5.95;;;;;;;2.25;77.27;97615.88;4948016;29;20043;-64
2021/04/12 02:20:18;;;;;;;10.77;4.70;;;;;;;2.63;77.28;97685.66;4946708;29;20421;-63
2021/04/12 02:22:53;;;;;;;5.47;4.05;;;;;;;2.59;77.67;97679.97;4948437;28;20129;-63
2021/04/12 02:25:59;;;;;;;7.43;3.95;;;;;;;2.56;77.28;97682.53;4948440;29;20522;-64
2021/04/12 02:28:49;;;;;;;6.80;4.68;;;;;;;2.60;77.65;97681.63;4947079;29;20066;-64
2021/04/12 02:31:21;;;;;;;12.20;7.35;;;;;;;2.54;77.21;97720.31;4948149;28;20529;-64
2021/04/12 02:34:04;;;;;;;12.33;6.23;;;;;;;1.90;77.22;97583.78;4946987;28;20079;-64
2021/04/12 02:37:08;;;;;;;8.95;5.43;;;;;;;2.53;78.35;97669.47;4947932;29;20061;-63
2021/04/12 02:40:10;;;;;;;11.13;4.82;;;;;;;1.43;77.19;97531.13;4949699;28;20110;-63
2021/04/12 02:42:43;;;;;;;9.85;5.85;;;;;;;2.47;75.96;97670.66;4946687;28;20139;-64
2021/04/12 02:45:42;;;;;;;8.50;5.38;;;;;;;1.55;76.40;97528.72;4947863;28;20545;-65
2021/04/12 02:48:19;;;;;;;12.93;6.75;;;;;;;2.40;76.47;97675.75;4948200;28;20043;-63
2021/04/12 02:50:58;;;;;;;12.68;6.75;;;;;;;2.34;77.24;97671.50;4947707;29;20035;-64
2021/04/12 02:53:33;;;;;;;10.55;6.07;;;;;;;2.34;77.39;97679.69;4946454;29;20565;-63
2021/04/12 02:56:24;;;;;;;8.95;5.05;;;;;;;2.32;76.90;97681.91;4946036;29;20031;-64
2021/04/12 02:59:03;;;;;;;10.40;6.43;;;;;;;1.65;78.14;97570.56;4947799;28;20094;-64
2021/04/12 03:01:53;;;;;;;8.63;5.90;;;;;;;2.22;78.09;97679.34;4947530;29;20557;-64
2021/04/12 03:04:43;;;;;;;10.18;5.47;;;;;;;2.21;76.89;97672.28;4946501;28;20050;-64
2021/04/12 03:07:31;;;;;;;15.25;4.80;;;;;;;1.77;78.25;97606.44;4947884;28;20031;-64
2021/04/12 03:10:09;;;;;;;9.52;5.75;;;;;;;2.08;79.64;97675.78;4946064;28;20051;-64
2021/04/12 03:12:45;;;;;;;18.65;10.02;;;;;;;2.26;79.45;97674.91;4947726;28;20039;-63
2021/04/12 03:15:29;;;;;;;17.17;11.27;;;;;;;2.16;78.83;97675.91;4945776;28;20031;-64
2021/04/12 03:18:58;;;;;;;18.70;8.82;;;;;;;2.19;79.83;97674.47;4931376;28;20043;-65
2021/04/12 03:21:52;;;;;;;17.27;9.73;;;;;;;2.19;80.69;97672.56;4986298;28;20038;-64
2021/04/12 03:25:03;;;;;;;14.20;7.25;;;;;;;2.13;80.27;97670.22;4966093;28;20039;-64
2021/04/12 03:27:58;;;;;;;14.98;5.70;;;;;;;2.17;78.43;97671.25;4975970;28;20058;-63
2021/04/12 03:30:28;;;;;;;11.13;5.80;;;;;;;2.13;78.91;97653.84;4966166;28;20065;-64
2021/04/12 03:33:30;;;;;;;11.10;6.03;;;;;;;1.64;78.90;97579.88;4966960;28;20525;-64
2021/04/12 03:36:29;;;;;;;8.43;4.90;;;;;;;2.11;78.73;97650.59;4971222;28;20042;-64
2021/04/12 03:39:07;;;;;;;8.98;4.72;;;;;;;2.26;78.89;97659.31;4966960;28;20042;-64
2021/04/12 03:42:04;;;;;;;9.32;5.18;;;;;;;2.37;77.48;97659.94;4964629;28;20038;-65
2021/04/12 03:45:00;;;;;;;8.98;4.90;;;;;;;2.34;77.78;97655.09;4966302;28;20042;-63
2021/04/12 03:47:44;;;;;;;11.57;5.55;;;;;;;2.28;77.02;97651.63;4964350;28;20133;-64
2021/04/12 03:50:26;;;;;;;9.32;5.50;;;;;;;2.01;77.35;97637.13;4966117;28;20073;-64
2021/04/12 03:53:24;;;;;;;9.95;5.60;;;;;;;-0.61;78.48;97220.88;4964956;28;20038;-64
2021/04/12 03:56:01;;;;;;;10.52;5.38;;;;;;;2.13;78.98;97662.84;4978011;28;20074;-64
2021/04/12 03:58:32;;;;;;;14.85;7.63;;;;;;;2.22;79.04;97662.94;4963830;28;20046;-65
2021/04/12 04:01:13;;;;;;;22.60;7.97;;;;;;;2.10;79.60;97668.09;4965604;28;20077;-64
2021/04/12 04:04:06;;;;;;;29.45;12.85;;;;;;;2.15;77.77;97659.81;4966168;28;20047;-64
2021/04/12 04:06:56;;;;;;;29.38;13.65;;;;;;;2.11;78.67;97672.44;4963765;28;20429;-64
2021/04/12 04:09:40;;;;;;;22.15;12.57;;;;;;;1.04;77.63;97472.63;4964335;28;20133;-66
2021/04/12 04:12:36;;;;;;;20.15;10.48;;;;;;;2.31;78.30;97669.38;4965479;28;20090;-64
2021/04/12 04:15:07;;;;;;;23.50;12.55;;;;;;;2.32;78.10;97652.66;4965412;28;20557;-64
2021/04/12 04:17:54;;;;;;;18.25;11.48;;;;;;;2.45;77.85;97667.44;4966017;28;20050;-63
2021/04/12 04:20:38;;;;;;;24.70;12.13;;;;;;;2.54;76.13;97671.09;4965282;28;20037;-65
2021/04/12 04:23:03;;;;;;;;;;;;;;;2.61;76.73;97666.81;4966476;28;20093;-64
2021/04/12 04:26:12;;;;;;;21.70;11.80;;;;;;;2.82;75.76;97667.22;4965178;28;20321;-64
2021/04/12 04:29:11;;;;;;;17.80;9.10;;;;;;;2.81;74.49;97677.34;4963994;28;20568;-64
2021/04/12 04:32:24;;;;;;;24.83;12.18;;;;;;;2.98;75.74;97676.72;4964768;28;20049;-64
2021/04/12 04:35:17;;;;;;;42.88;17.15;;;;;;;3.20;73.41;97679.53;4965437;28;20509;-65
2021/04/12 04:37:58;;;;;;;36.45;12.38;;;;;;;3.22;73.20;97680.03;4965600;28;20051;-64
2021/04/12 04:40:52;;;;;;;26.52;13.68;;;;;;;2.86;73.34;97629.94;4964158;28;20034;-65
2021/04/12 04:43:29;;;;;;;;;;;;;;;3.52;72.27;97687.56;4966101;28;20078;-66
2021/04/12 04:46:20;;;;;;;28.42;12.75;;;;;;;3.73;71.62;97683.22;4964919;28;19953;-64
2021/04/12 04:49:00;;;;;;;26.75;12.15;;;;;;;3.76;72.43;97682.59;4965711;28;20047;-64
2021/04/12 04:51:48;;;;;;;30.98;13.55;;;;;;;4.08;71.97;97685.06;4962788;28;20563;-63
2021/04/12 04:54:43;;;;;;;29.20;13.40;;;;;;;4.25;71.25;97685.19;4963765;28;20573;-63
2021/04/12 04:57:42;;;;;;;232.13;71.63;;;;;;;4.25;70.25;97657.75;4964676;28;20042;-64
2021/04/12 05:00:27;;;;;;;117.85;40.42;;;;;;;4.95;69.48;97682.41;4963602;28;20031;-64
2021/04/12 05:02:59;;;;;;;63.80;32.50;;;;;;;5.38;65.54;97691.56;4964519;28;20108;-65
2021/04/12 05:05:45;;;;;;;53.95;22.25;;;;;;;5.44;64.47;97682.03;4964371;28;20510;-65
2021/04/12 05:08:45;;;;;;;48.10;19.65;;;;;;;4.93;65.95;97684.69;4965139;28;20047;-63
2021/04/12 05:12:00;;;;;;;68.38;23.08;;;;;;;5.01;65.95;97680.34;4962917;28;20525;-64
2021/04/12 06:04:48;;;;;;;29.10;11.55;;;;;;;8.33;55.90;97648.78;4908072;28;20050;-70
2021/04/12 06:07:58;;;;;;;23.50;11.05;;;;;;;8.52;55.10;97640.78;4901336;28;20043;-64
2021/04/12 06:11:00;;;;;;;25.02;10.07;;;;;;;8.74;54.19;97653.38;4905246;28;20353;-66
2021/04/12 06:13:59;;;;;;;26.50;10.45;;;;;;;8.85;53.13;97643.50;4908402;28;20066;-65
2021/04/12 06:16:40;;;;;;;20.17;8.02;;;;;;;9.09;52.15;97637.94;4906888;28;20514;-67
2021/04/12 06:19:24;;;;;;;18.73;8.65;;;;;;;9.26;51.97;97640.50;4908168;28;20529;-67
2021/04/12 06:22:09;;;;;;;;;;;;;;;9.57;51.06;97637.91;4909187;28;20066;-66
2021/04/12 06:24:37;;;;;;;19.67;8.18;;;;;;;9.64;50.43;97629.78;4909875;28;20064;-67
2021/04/12 06:27:24;;;;;;;22.73;8.95;;;;;;;9.81;49.66;97635.06;4911083;28;20042;-65
2021/04/12 06:29:53;;;;;;;12.50;7.07;;;;;;;10.08;48.56;97626.00;4914716;28;20509;-69
2021/04/12 06:32:47;;;;;;;22.23;8.80;;;;;;;10.28;49.29;97616.66;4966353;28;20065;-65
2021/04/12 06:35:18;;;;;;;32.08;12.05;;;;;;;10.52;49.61;97619.31;4949582;28;20171;-68
2021/04/12 06:40:44;;;;;;;13.05;7.13;;;;;;;10.82;46.15;97622.44;5066497;27;96260;-64
2021/04/12 06:43:35;;;;;;;11.52;5.90;;;;;;;11.00;45.50;97618.13;5044138;28;40335;-69
2021/04/12 06:46:21;;;;;;;24.63;6.82;;;;;;;11.05;45.84;97614.31;5059503;28;20666;-62
2021/04/12 06:49:36;;;;;;;15.10;6.43;;;;;;;11.44;45.03;97635.44;5040735;28;20504;-67
2021/04/12 06:52:23;;;;;;;9.02;4.97;;;;;;;11.46;44.92;97608.94;5038697;28;20135;-67
2021/04/12 06:55:19;;;;;;;11.18;5.40;;;;;;;11.59;44.72;97612.38;5039203;28;20063;-69
2021/04/12 06:58:21;;;;;;;13.23;6.75;;;;;;;11.18;43.74;97513.19;5059667;28;20046;-64
2021/04/12 07:01:05;;;;;;;13.65;6.65;;;;;;;11.95;43.13;97609.22;5074246;28;20114;-66
2021/04/12 07:04:08;;;;;;;17.20;7.50;;;;;;;12.13;43.10;97593.72;5059224;28;20045;-63
2021/04/12 07:06:36;;;;;;;10.38;6.13;;;;;;;12.41;42.92;97590.69;5074449;28;20522;-69
2021/04/12 07:09:27;;;;;;;10.57;6.10;;;;;;;12.53;43.01;97577.44;5057007;28;20203;-66
2021/04/12 07:12:11;;;;;;;12.80;6.78;;;;;;;12.82;43.37;97582.28;5057782;28;20068;-67
2021/04/12 07:15:15;;;;;;;11.45;5.55;;;;;;;12.66;42.88;97572.50;5060660;28;20135;-67
2021/04/12 07:17:50;;;;;;;10.85;5.10;;;;;;;12.93;42.85;97569.38;5074369;28;20044;-67
2021/04/12 07:20:21;;;;;;;13.55;5.35;;;;;;;12.88;40.75;97524.41;5057060;28;20052;-63
2021/04/12 07:23:14;;;;;;;7.63;4.72;;;;;;;12.95;41.22;97564.25;5058024;28;20039;-68
2021/04/12 07:26:22;;;;;;;10.52;4.78;;;;;;;12.77;42.07;97568.69;5057673;28;20475;-65
2021/04/12 07:29:25;;;;;;;8.52;4.93;;;;;;;12.69;41.87;97561.44;5055502;28;20076;-66
2021/04/12 07:31:50;;;;;;;8.13;5.13;;;;;;;13.07;41.46;97555.72;5055901;28;20063;-68
2021/04/12 07:34:37;;;;;;;9.70;5.03;;;;;;;13.06;43.09;97548.56;5059464;28;20566;-64
2021/04/12 07:37:38;;;;;;;8.32;5.20;;;;;;;13.18;42.25;97528.84;5055811;28;20033;-65
2021/04/12 07:40:37;;;;;;;9.80;4.72;;;;;;;13.41;40.89;97545.50;5057351;28;20152;-67
2021/04/12 07:43:37;;;;;;;11.35;4.80;;;;;;;13.51;40.11;97542.84;5057457;28;20048;-67
2021/04/12 07:46:15;;;;;;;8.82;4.90;;;;;;;13.69;39.82;97546.69;5057934;28;20036;-66
2021/04/12 07:49:14;;;;;;;8.73;5.10;;;;;;;13.92;40.31;97541.00;5058328;28;20040;-68
2021/04/12 07:51:57;;;;;;;8.70;4.40;;;;;;;14.05;39.81;97530.41;5045079;28;20348;-67
2021/04/12 07:54:50;;;;;;;8.38;4.68;;;;;;;14.19;39.26;97527.75;5047145;28;20052;-65
2021/04/12 07:57:43;;;;;;;9.27;4.95;;;;;;;14.43;39.11;97521.69;5045023;28;20056;-66
2021/04/12 08:00:46;;;;;;;10.00;4.90;;;;;;;14.59;39.37;97519.44;5060402;28;20526;-69
2021/04/12 08:03:14;;;;;;;6.43;4.65;;;;;;;14.70;38.74;97509.19;5045409;28;20067;-65
2021/04/12 08:06:16;;;;;;;6.22;4.22;;;;;;;14.61;38.08;97511.47;5037839;28;20033;-66
2021/04/12 08:08:53;;;;;;;5.10;4.28;;;;;;;14.59;39.35;97503.50;5029451;28;20032;-66
2021/04/12 08:11:19;;;;;;;6.55;4.22;;;;;;;14.88;37.97;97504.53;5042093;28;20045;-67
2021/04/12 08:13:50;;;;;;;5.35;4.28;;;;;;;14.99;37.29;97505.41;5044371;28;20037;-68
2021/04/12 08:16:41;;;;;;;6.35;4.07;;;;;;;15.15;37.27;97503.94;5037087;28;20045;-66
2021/04/12 08:19:25;;;;;;;7.20;3.88;;;;;;;15.28;36.75;97501.63;5025777;28;20315;-65
2021/04/12 08:22:28;;;;;;;5.72;4.28;;;;;;;15.05;36.64;97487.91;5043222;28;20047;-64
2021/04/12 08:25:30;;;;;;;5.63;4.22;;;;;;;15.28;37.08;97493.25;5034042;28;20072;-70
2021/04/12 08:28:17;;;;;;;6.78;4.13;;;;;;;15.35;36.61;97482.09;5045345;28;20036;-67
2021/04/12 08:31:23;;;;;;;5.10;4.10;;;;;;;15.75;36.21;97481.94;5059667;28;20048;-68
2021/04/12 08:34:10;;;;;;;6.07;4.00;;;;;;;15.89;36.10;97473.59;5045007;28;20037;-67
2021/04/12 08:36:44;;;;;;;6.15;4.60;;;;;;;16.00;35.68;97476.41;5043571;28;20102;-65
2021/04/12 08:39:31;;;;;;;5.13;4.05;;;;;;;15.91;36.05;97468.44;5043699;28;20057;-65
2021/04/12 08:42:06;;;;;;;10.52;4.35;;;;;;;16.36;35.45;97466.94;5043383;28;20477;-67
2021/04/12 08:45:03;;;;;;;6.72;4.28;;;;;;;16.50;35.01;97456.56;5042759;28;20491;-64
2021/04/12 08:47:54;;;;;;;4.72;4.32;;;;;;;16.63;35.72;97463.38;5056028;28;20055;-67
2021/04/12 08:50:50;;;;;;;6.70;4.50;;;;;;;16.76;36.12;97457.34;5044848;28;20049;-69
2021/04/12 08:53:37;;;;;;;12.15;6.40;;;;;;;17.02;35.52;97448.53;5045146;28;20067;-68
2021/04/12 08:56:34;;;;;;;6.78;4.63;;;;;;;17.04;35.68;97443.34;5042168;28;20041;-70
2021/04/12 08:58:59;;;;;;;7.75;4.07;;;;;;;16.75;36.08;97450.16;5044421;28;20507;-68
2021/04/12 09:01:46;;;;;;;4.68;4.18;;;;;;;16.43;35.58;97456.53;5043793;28;20039;-66
2021/04/12 09:04:38;;;;;;;5.40;4.60;;;;;;;16.88;35.37;97437.38;5044360;28;20649;-67
2021/04/12 09:07:32;;;;;;;5.35;4.10;;;;;;;16.99;35.26;97426.97;5041812;28;20037;-67
2021/04/12 09:10:16;;;;;;;9.65;5.40;;;;;;;17.47;35.37;97419.63;5044529;28;20047;-63
2021/04/12 09:13:00;;;;;;;6.68;4.53;;;;;;;17.83;33.88;97409.88;5029984;28;20029;-64
2021/04/12 09:16:03;;;;;;;5.47;4.97;;;;;;;18.29;33.07;97399.16;5043803;28;20084;-67
2021/04/12 09:18:56;;;;;;;6.22;4.65;;;;;;;18.31;33.43;97402.34;5039369;28;20170;-66
2021/04/12 09:21:40;;;;;;;7.82;4.80;;;;;;;17.97;33.67;97398.59;5059313;28;20052;-70
2021/04/12 09:24:36;;;;;;;10.65;5.40;;;;;;;18.28;33.65;97391.13;5041663;28;20102;-67
2021/04/12 09:27:41;;;;;;;11.75;6.60;;;;;;;18.32;32.59;97392.72;5044091;28;20036;-66
2021/04/12 09:30:33;;;;;;;23.95;11.80;;;;;;;18.46;32.53;97387.03;5044187;28;20037;-65
2021/04/12 09:33:20;;;;;;;6.10;5.13;;;;;;;18.18;32.54;97297.47;5043977;28;20029;-65
2021/04/12 09:36:13;;;;;;;8.23;5.75;;;;;;;18.90;32.80;97373.00;5042868;28;20434;-68
2021/04/12 09:39:06;;;;;;;33.35;21.15;;;;;;;19.07;32.25;97372.00;5034468;28;20056;-68
2021/04/12 09:41:52;;;;;;;8.25;5.35;;;;;;;18.99;31.42;97370.47;5042088;28;20040;-60
2021/04/12 09:44:50;;;;;;;5.13;4.63;;;;;;;19.28;31.59;97363.34;5044133;28;20111;-60
2021/04/12 09:47:21;;;;;;;5.88;5.18;;;;;;;19.55;31.26;97361.38;5044076;28;20033;-60
2021/04/12 09:50:18;;;;;;;5.72;5.18;;;;;;;19.75;31.06;97357.91;5044608;28;20416;-61
2021/04/12 09:53:06;;;;;;;8.75;4.57;;;;;;;19.87;30.00;97357.38;5042172;28;20504;-61
2021/04/12 09:56:16;;;;;;;6.20;5.10;;;;;;;18.97;31.65;97344.81;5043805;28;20036;-61
2021/04/12 09:59:19;;;;;;;5.18;4.68;;;;;;;19.22;31.24;97350.94;5041603;28;20048;-60
2021/04/12 10:01:54;;;;;;;6.90;4.97;;;;;;;19.54;30.74;97345.75;5056510;28;20040;-63
2021/04/12 10:04:40;;;;;;;9.45;4.55;;;;;;;19.20;31.56;97342.16;5043574;28;20068;-63
2021/04/12 10:07:11;;;;;;;8.45;6.07;;;;;;;18.70;31.19;97296.19;5042879;28;20522;-61
2021/04/12 10:09:51;;;;;;;4.80;4.30;;;;;;;18.71;31.62;97286.56;5041751;28;20041;-58
2021/04/12 10:12:22;;;;;;;9.40;6.72;;;;;;;19.51;31.62;97332.56;5043158;28;20025;-60
2021/04/12 10:14:59;;;;;;;6.18;4.95;;;;;;;19.32;31.40;97323.97;5043121;28;20033;-60
2021/04/12 10:17:34;;;;;;;5.32;4.72;;;;;;;18.93;31.32;97327.22;5043053;28;20467;-60
2021/04/12 10:20:04;;;;;;;6.47;4.22;;;;;;;19.01;31.79;97308.28;5042549;28;20040;-59
2021/04/12 10:22:46;;;;;;;5.78;4.70;;;;;;;19.13;31.00;97308.53;5043510;28;20029;-61
2021/04/12 10:25:19;;;;;;;6.82;5.57;;;;;;;16.90;31.00;96914.50;5042119;28;20036;-59
2021/04/12 10:27:51;;;;;;;7.78;5.22;;;;;;;19.87;29.78;97301.13;5043213;28;20024;-61
2021/04/12 10:30:29;;;;;;;5.80;4.57;;;;;;;19.31;29.67;97303.53;5042770;28;20036;-58
2021/04/12 10:33:03;;;;;;;6.90;4.82;;;;;;;18.83;29.90;97296.44;5043618;28;20075;-63
2021/04/12 10:35:41;;;;;;;5.75;4.60;;;;;;;19.05;29.97;97294.97;5041688;28;20035;-64
2021/04/12 10:38:31;;;;;;;5.55;4.55;;;;;;;18.56;29.61;97229.00;5042496;28;20520;-63
2021/04/12 10:41:00;;;;;;;5.82;5.10;;;;;;;19.26;29.56;97289.91;5058187;28;20565;-62
2021/04/12 10:43:33;;;;;;;6.22;5.28;;;;;;;19.82;28.86;97299.59;5042941;28;20491;-64
2021/04/12 10:46:20;;;;;;;5.72;4.32;;;;;;;19.47;27.35;97295.25;5042736;28;20021;-62
2021/04/12 10:49:01;;;;;;;6.40;5.18;;;;;;;19.98;27.39;97296.13;5041652;28;20128;-61
2021/04/12 10:51:42;;;;;;;6.35;5.07;;;;;;;19.06;27.24;97159.78;5038279;28;20044;-63
2021/04/12 10:54:11;;;;;;;5.25;4.75;;;;;;;20.37;27.60;97297.13;5042719;28;20037;-64
2021/04/12 10:56:39;;;;;;;7.32;5.00;;;;;;;20.79;26.98;97289.88;5056439;28;20431;-62
2021/04/12 10:59:41;;;;;;;8.15;4.75;;;;;;;20.79;28.30;97273.81;5042652;28;20045;-62
2021/04/12 11:02:16;;;;;;;7.30;6.32;;;;;;;20.61;28.59;97278.19;5041487;28;20107;-64
2021/04/12 11:04:53;;;;;;;5.97;5.10;;;;;;;20.60;27.42;97270.94;5060155;28;20132;-61
2021/04/12 11:07:42;;;;;;;6.60;4.80;;;;;;;20.37;28.63;97268.97;5041502;28;20068;-61
2021/04/12 11:10:22;;;;;;;8.50;5.28;;;;;;;20.24;29.29;97275.63;5041934;28;20148;-61
2021/04/12 11:12:59;;;;;;;9.38;6.10;;;;;;;19.78;26.84;97219.31;5038093;28;20037;-63
2021/04/12 11:15:30;;;;;;;9.77;6.28;;;;;;;20.43;28.99;97269.25;5041006;28;20040;-61
2021/04/12 11:17:55;;;;;;;21.33;15.05;;;;;;;20.75;29.24;97266.66;5062348;28;20040;-60
2021/04/12 11:20:32;;;;;;;5.30;4.80;;;;;;;19.99;29.01;97224.59;5045188;28;20037;-61
2021/04/12 11:23:23;;;;;;;8.65;5.50;;;;;;;20.55;28.93;97254.59;5042464;28;20055;-61
2021/04/12 11:26:15;;;;;;;8.40;5.43;;;;;;;20.83;28.47;97254.03;5041859;28;20499;-60
2021/04/12 11:28:44;;;;;;;5.78;5.25;;;;;;;20.78;27.83;97254.53;5046062;28;20045;-61
2021/04/12 11:31:20;;;;;;;6.85;5.40;;;;;;;19.85;28.91;97188.28;5044785;28;20032;-60
2021/04/12 11:34:03;;;;;;;20.13;11.07;;;;;;;20.85;29.42;97248.72;5037865;28;20058;-62
2021/04/12 11:36:41;;;;;;;6.63;5.82;;;;;;;21.00;27.23;97244.44;5025310;28;20048;-66
2021/04/12 11:39:20;;;;;;;7.28;5.75;;;;;;;20.44;27.97;97166.72;5024275;28;20601;-64
2021/04/12 11:42:15;;;;;;;6.82;5.97;;;;;;;20.49;27.68;97028.31;5025837;28;20930;-63
2021/04/12 11:44:49;;;;;;;8.50;5.80;;;;;;;22.07;27.28;97236.75;5023586;28;20429;-62
2021/04/12 11:47:45;;;;;;;7.30;6.63;;;;;;;21.63;27.82;97237.41;5025008;28;20041;-67
2021/04/12 11:50:49;;;;;;;8.77;6.00;;;;;;;21.95;27.22;97231.84;5025948;28;20041;-62
2021/04/12 11:53:32;;;;;;;8.43;5.90;;;;;;;22.09;26.97;97225.84;5019554;28;20049;-61
2021/04/12 11:56:16;;;;;;;6.75;5.43;;;;;;;22.47;26.47;97223.22;5024755;28;20291;-61
2021/04/12 11:58:50;;;;;;;6.28;5.35;;;;;;;21.55;26.04;97190.88;5036427;28;20365;-64
2021/04/12 12:01:24;;;;;;;7.32;5.95;;;;;;;21.94;25.89;97218.16;5037850;28;20567;-60
2021/04/12 12:04:20;;;;;;;9.27;5.65;;;;;;;21.71;26.46;97210.63;5010985;28;20041;-61
2021/04/12 12:06:55;;;;;;;8.02;6.70;;;;;;;22.19;26.26;97202.16;5023890;28;20044;-64
2021/04/12 12:09:40;;;;;;;17.38;10.18;;;;;;;20.14;25.44;96843.44;5024133;28;20044;-63
2021/04/12 12:12:15;;;;;;;8.40;4.90;;;;;;;22.15;25.38;97195.03;5025521;28;20037;-63
2021/04/12 12:15:01;;;;;;;9.00;5.57;;;;;;;22.56;25.92;97191.56;5026210;28;20085;-60
2021/04/12 12:17:34;;;;;;;7.28;5.80;;;;;;;22.01;26.05;97136.97;5023335;28;20033;-63
2021/04/12 12:20:10;;;;;;;8.07;4.90;;;;;;;22.21;25.72;97182.78;5026036;28;20041;-62
2021/04/12 12:22:59;;;;;;;8.18;6.00;;;;;;;22.47;26.12;97183.69;5024380;28;20510;-64
2021/04/12 12:25:47;;;;;;;6.00;5.50;;;;;;;21.90;25.44;97136.44;5024895;28;20650;-62
2021/04/12 12:28:22;;;;;;;10.35;5.70;;;;;;;22.14;26.05;97160.41;5014385;28;20064;-62
2021/04/12 12:34:05;;;;;;;6.05;5.53;;;;;;;22.25;25.53;97183.50;5018416;28;20056;-61
2021/04/12 12:36:49;;;;;;;9.40;7.28;;;;;;;21.83;25.90;97173.28;5023735;28;20061;-62
2021/04/12 12:39:26;;;;;;;7.97;6.63;;;;;;;22.21;26.88;97177.13;5023398;28;20096;-62
2021/04/12 12:41:53;;;;;;;8.82;6.35;;;;;;;22.27;25.87;97059.63;5021584;28;20030;-60
2021/04/12 12:44:23;;;;;;;7.15;5.95;;;;;;;23.23;24.79;97162.13;5014299;28;20043;-60
2021/04/12 12:46:50;;;;;;;7.05;5.82;;;;;;;23.15;24.60;97104.22;5018135;28;20035;-60
2021/04/12 12:49:26;;;;;;;7.18;6.10;;;;;;;23.81;23.61;97152.97;5024832;28;20033;-64
2021/04/12 12:52:08;;;;;;;9.27;7.05;;;;;;;23.46;24.16;97158.97;5014731;28;20545;-65
2021/04/12 12:54:42;;;;;;;33.85;18.55;;;;;;;23.62;24.34;97145.53;5021564;28;20041;-61
2021/04/12 12:57:20;;;;;;;9.05;6.90;;;;;;;23.82;24.17;97148.13;5024493;28;20048;-61
2021/04/12 12:59:59;;;;;;;7.25;6.15;;;;;;;23.46;24.13;97080.59;5025343;28;20538;-61
2021/04/12 13:02:24;;;;;;;7.88;6.85;;;;;;;23.60;24.44;97141.59;5008519;28;20025;-60
2021/04/12 13:05:18;;;;;;;13.43;8.70;;;;;;;23.75;23.74;97134.19;5015928;28;20527;-58
2021/04/12 13:07:44;;;;;;;11.47;6.27;;;;;;;23.79;23.62;97127.16;5012764;28;20507;-62
2021/04/12 13:10:18;;;;;;;7.00;6.03;;;;;;;23.44;23.87;97048.38;5021991;28;20030;-61
2021/04/12 13:12:48;;;;;;;10.18;6.25;;;;;;;23.89;23.92;97122.41;5024329;28;20029;-62
2021/04/12 13:15:19;;;;;;;7.78;6.97;;;;;;;23.96;23.93;97124.19;5022201;28;20049;-59
2021/04/12 13:17:48;;;;;;;8.98;7.20;;;;;;;24.10;24.09;97116.03;5023592;28;20172;-59
2021/04/12 13:20:20;;;;;;;11.00;7.78;;;;;;;24.24;23.94;97112.72;5023163;28;20546;-61
2021/04/12 13:22:53;;;;;;;7.90;6.40;;;;;;;24.31;23.33;97118.09;5039618;28;20036;-59
2021/04/12 13:25:32;;;;;;;7.38;6.65;;;;;;;23.97;23.36;97067.16;5022353;28;20485;-60
2021/04/12 13:28:08;;;;;;;11.95;7.75;;;;;;;24.32;24.01;97108.38;5024444;28;20237;-61
2021/04/12 13:30:41;;;;;;;9.80;7.65;;;;;;;24.09;24.43;97049.34;5024139;28;20093;-60
2021/04/12 13:33:12;;;;;;;8.95;8.05;;;;;;;23.63;23.83;97038.84;5023580;28;20124;-59
2021/04/12 13:35:41;;;;;;;6.55;5.70;;;;;;;23.63;24.96;97113.16;5023677;28;20029;-63
2021/04/12 13:38:07;;;;;;;7.90;6.32;;;;;;;24.52;23.67;97108.84;5024160;28;20067;-63
2021/04/12 13:40:57;;;;;;;9.45;6.82;;;;;;;24.59;22.75;96862.13;5023895;28;20026;-60
2021/04/12 13:43:29;;;;;;;7.30;6.40;;;;;;;27.85;20.55;97096.31;5024213;28;20405;-62
2021/04/12 13:45:56;;;;;;;8.60;6.97;;;;;;;27.75;21.09;97097.66;5023460;28;20033;-61
2021/04/12 13:48:26;;;;;;;8.48;7.60;;;;;;;26.36;22.48;97094.50;5038399;28;20128;-61